sensor_id;sensor_type;location;lat;lon;timestamp;P1;durP1;ratioP1;P2;durP2;ratioP2
19605;SDS011;9950;50.168;8.210;2023-09-19T00:01:05;6.20;;;2.88;;
19605;SDS011;9950;50.168;8.210;2023-09-19T00:03:33;5.57;;;2.78;;
19605;SDS011;9950;50.168;8.210;2023-09-19T00:06:04;4.20;;;2.92;;
19605;SDS011;9950;50.168;8.210;2023-09-19T00:08:32;5.80;;;2.78;;
19605;SDS011;9950;50.168;8.210;2023-09-19T00:10:59;4.43;;;3.08;;
19605;SDS011;9950;50.168;8.210;2023-09-19T00:13:31;5.95;;;3.40;;
19605;SDS011;9950;50.168;8.210;2023-09-19T00:15:58;6.28;;;3.05;;
19605;SDS011;9950;50.168;8.210;2023-09-19T00:18:26;4.32;;;3.20;;
19605;SDS011;9950;50.168;8.210;2023-09-19T00:20:57;5.35;;;2.95;;
19605;SDS011;9950;50.168;8.210;2023-09-19T00:23:26;5.55;;;2.92;;
19605;SDS011;9950;50.168;8.210;2023-09-19T00:25:53;4.07;;;2.97;;
19605;SDS011;9950;50.168;8.210;2023-09-19T00:28:22;6.85;;;3.20;;
19605;SDS011;9950;50.168;8.210;2023-09-19T00:30:49;6.07;;;2.90;;
19605;SDS011;9950;50.168;8.210;2023-09-19T00:33:17;4.15;;;3.00;;
19605;SDS011;9950;50.168;8.210;2023-09-19T00:35:47;4.57;;;2.85;;
19605;SDS011;9950;50.168;8.210;2023-09-19T00:38:14;3.50;;;2.90;;
19605;SDS011;9950;50.168;8.210;2023-09-19T00:40:44;4.88;;;3.38;;
19605;SDS011;9950;50.168;8.210;2023-09-19T00:43:12;5.45;;;2.80;;
19605;SDS011;9950;50.168;8.210;2023-09-19T00:45:39;5.63;;;3.83;;
19605;SDS011;9950;50.168;8.210;2023-09-19T00:48:08;4.07;;;2.97;;
19605;SDS011;9950;50.168;8.210;2023-09-19T00:50:36;5.63;;;3.28;;
19605;SDS011;9950;50.168;8.210;2023-09-19T00:53:07;5.18;;;3.47;;
19605;SDS011;9950;50.168;8.210;2023-09-19T00:55:35;4.70;;;2.95;;
19605;SDS011;9950;50.168;8.210;2023-09-19T00:58:04;5.72;;;3.40;;
19605;SDS011;9950;50.168;8.210;2023-09-19T01:00:32;5.10;;;3.13;;
19605;SDS011;9950;50.168;8.210;2023-09-19T01:02:59;4.40;;;3.10;;
19605;SDS011;9950;50.168;8.210;2023-09-19T01:05:27;6.50;;;3.13;;
19605;SDS011;9950;50.168;8.210;2023-09-19T01:07:54;4.60;;;3.25;;
19605;SDS011;9950;50.168;8.210;2023-09-19T01:10:22;5.55;;;3.42;;
19605;SDS011;9950;50.168;8.210;2023-09-19T01:12:52;8.20;;;3.45;;
19605;SDS011;9950;50.168;8.210;2023-09-19T01:15:24;7.10;;;3.53;;
19605;SDS011;9950;50.168;8.210;2023-09-19T01:17:57;5.70;;;3.47;;
19605;SDS011;9950;50.168;8.210;2023-09-19T01:20:31;8.05;;;3.15;;
19605;SDS011;9950;50.168;8.210;2023-09-19T01:23:03;4.35;;;3.17;;
19605;SDS011;9950;50.168;8.210;2023-09-19T01:28:20;7.20;;;3.80;;
19605;SDS011;9950;50.168;8.210;2023-09-19T01:30:51;5.32;;;3.35;;
19605;SDS011;9950;50.168;8.210;2023-09-19T01:33:20;6.60;;;3.08;;
19605;SDS011;9950;50.168;8.210;2023-09-19T01:35:48;6.60;;;3.45;;
19605;SDS011;9950;50.168;8.210;2023-09-19T01:38:15;6.60;;;3.53;;
19605;SDS011;9950;50.168;8.210;2023-09-19T01:40:46;7.00;;;4.13;;
19605;SDS011;9950;50.168;8.210;2023-09-19T01:43:17;9.45;;;4.75;;
19605;SDS011;9950;50.168;8.210;2023-09-19T01:45:50;7.85;;;4.30;;
19605;SDS011;9950;50.168;8.210;2023-09-19T01:48:23;6.85;;;3.95;;
19605;SDS011;9950;50.168;8.210;2023-09-19T01:50:56;4.05;;;3.35;;
19605;SDS011;9950;50.168;8.210;2023-09-19T01:53:26;7.97;;;4.15;;
19605;SDS011;9950;50.168;8.210;2023-09-19T01:55:55;7.25;;;3.42;;
19605;SDS011;9950;50.168;8.210;2023-09-19T01:58:27;9.45;;;3.80;;
19605;SDS011;9950;50.168;8.210;2023-09-19T02:00:58;6.80;;;3.53;;
19605;SDS011;9950;50.168;8.210;2023-09-19T02:03:26;7.07;;;3.03;;
19605;SDS011;9950;50.168;8.210;2023-09-19T02:05:55;6.22;;;3.47;;
19605;SDS011;9950;50.168;8.210;2023-09-19T02:08:22;7.75;;;3.38;;
19605;SDS011;9950;50.168;8.210;2023-09-19T02:10:49;6.47;;;3.10;;
19605;SDS011;9950;50.168;8.210;2023-09-19T02:13:18;5.53;;;3.17;;
19605;SDS011;9950;50.168;8.210;2023-09-19T02:15:45;10.48;;;4.55;;
19605;SDS011;9950;50.168;8.210;2023-09-19T02:18:14;6.45;;;4.03;;
19605;SDS011;9950;50.168;8.210;2023-09-19T02:20:42;5.75;;;3.67;;
19605;SDS011;9950;50.168;8.210;2023-09-19T02:23:09;4.38;;;3.20;;
19605;SDS011;9950;50.168;8.210;2023-09-19T02:25:36;6.38;;;3.30;;
19605;SDS011;9950;50.168;8.210;2023-09-19T02:28:05;4.38;;;3.20;;
19605;SDS011;9950;50.168;8.210;2023-09-19T02:30:34;10.80;;;3.20;;
19605;SDS011;9950;50.168;8.210;2023-09-19T02:33:02;5.07;;;2.85;;
19605;SDS011;9950;50.168;8.210;2023-09-19T02:35:31;5.32;;;2.72;;
19605;SDS011;9950;50.168;8.210;2023-09-19T02:38:01;3.95;;;2.67;;
19605;SDS011;9950;50.168;8.210;2023-09-19T02:40:31;5.18;;;2.80;;
19605;SDS011;9950;50.168;8.210;2023-09-19T02:43:01;6.80;;;2.88;;
19605;SDS011;9950;50.168;8.210;2023-09-19T02:45:28;6.28;;;2.80;;
19605;SDS011;9950;50.168;8.210;2023-09-19T02:47:56;11.82;;;3.20;;
19605;SDS011;9950;50.168;8.210;2023-09-19T02:50:23;7.28;;;3.13;;
19605;SDS011;9950;50.168;8.210;2023-09-19T02:52:52;5.25;;;3.05;;
19605;SDS011;9950;50.168;8.210;2023-09-19T02:55:19;7.35;;;2.83;;
19605;SDS011;9950;50.168;8.210;2023-09-19T02:57:47;8.20;;;2.83;;
19605;SDS011;9950;50.168;8.210;2023-09-19T03:00:14;5.75;;;2.63;;
19605;SDS011;9950;50.168;8.210;2023-09-19T03:02:42;6.13;;;3.10;;
19605;SDS011;9950;50.168;8.210;2023-09-19T03:05:11;7.03;;;3.28;;
19605;SDS011;9950;50.168;8.210;2023-09-19T03:07:38;7.47;;;2.78;;
19605;SDS011;9950;50.168;8.210;2023-09-19T03:10:09;9.00;;;2.92;;
19605;SDS011;9950;50.168;8.210;2023-09-19T03:12:37;5.90;;;2.95;;
19605;SDS011;9950;50.168;8.210;2023-09-19T03:15:05;7.38;;;2.97;;
19605;SDS011;9950;50.168;8.210;2023-09-19T03:17:33;7.38;;;2.80;;
19605;SDS011;9950;50.168;8.210;2023-09-19T03:20:01;3.38;;;2.40;;
19605;SDS011;9950;50.168;8.210;2023-09-19T03:22:29;6.97;;;2.60;;
19605;SDS011;9950;50.168;8.210;2023-09-19T03:24:56;3.85;;;2.78;;
19605;SDS011;9950;50.168;8.210;2023-09-19T03:27:25;5.65;;;2.70;;
19605;SDS011;9950;50.168;8.210;2023-09-19T03:29:52;5.40;;;3.20;;
19605;SDS011;9950;50.168;8.210;2023-09-19T03:32:20;5.72;;;2.63;;
19605;SDS011;9950;50.168;8.210;2023-09-19T03:34:47;3.72;;;2.75;;
19605;SDS011;9950;50.168;8.210;2023-09-19T03:37:14;6.10;;;3.00;;
19605;SDS011;9950;50.168;8.210;2023-09-19T03:39:42;9.60;;;3.50;;
19605;SDS011;9950;50.168;8.210;2023-09-19T03:42:09;5.28;;;3.10;;
19605;SDS011;9950;50.168;8.210;2023-09-19T03:44:38;8.18;;;3.50;;
19605;SDS011;9950;50.168;8.210;2023-09-19T03:47:05;5.90;;;3.10;;
19605;SDS011;9950;50.168;8.210;2023-09-19T03:49:32;7.30;;;2.78;;
19605;SDS011;9950;50.168;8.210;2023-09-19T03:52:00;7.40;;;3.22;;
19605;SDS011;9950;50.168;8.210;2023-09-19T03:54:27;5.32;;;2.80;;
19605;SDS011;9950;50.168;8.210;2023-09-19T03:56:55;8.40;;;3.00;;
19605;SDS011;9950;50.168;8.210;2023-09-19T03:59:22;5.68;;;2.97;;
19605;SDS011;9950;50.168;8.210;2023-09-19T04:01:50;6.25;;;2.92;;
19605;SDS011;9950;50.168;8.210;2023-09-19T04:04:21;5.03;;;2.80;;
19605;SDS011;9950;50.168;8.210;2023-09-19T04:06:50;4.95;;;2.80;;
19605;SDS011;9950;50.168;8.210;2023-09-19T04:09:17;4.38;;;2.85;;
19605;SDS011;9950;50.168;8.210;2023-09-19T04:11:44;4.47;;;2.75;;
19605;SDS011;9950;50.168;8.210;2023-09-19T04:14:11;3.72;;;2.67;;
19605;SDS011;9950;50.168;8.210;2023-09-19T04:16:38;7.18;;;2.78;;
19605;SDS011;9950;50.168;8.210;2023-09-19T04:19:10;9.55;;;3.58;;
19605;SDS011;9950;50.168;8.210;2023-09-19T04:21:39;7.43;;;2.83;;
19605;SDS011;9950;50.168;8.210;2023-09-19T04:24:06;5.55;;;2.70;;
19605;SDS011;9950;50.168;8.210;2023-09-19T04:26:33;6.45;;;3.00;;
19605;SDS011;9950;50.168;8.210;2023-09-19T04:29:01;8.52;;;3.10;;
19605;SDS011;9950;50.168;8.210;2023-09-19T04:31:29;5.93;;;3.30;;
19605;SDS011;9950;50.168;8.210;2023-09-19T04:33:56;6.47;;;3.10;;
19605;SDS011;9950;50.168;8.210;2023-09-19T04:36:25;4.57;;;2.90;;
19605;SDS011;9950;50.168;8.210;2023-09-19T04:38:53;6.90;;;3.00;;
19605;SDS011;9950;50.168;8.210;2023-09-19T04:41:20;5.40;;;3.10;;
19605;SDS011;9950;50.168;8.210;2023-09-19T04:43:48;8.35;;;2.80;;
19605;SDS011;9950;50.168;8.210;2023-09-19T04:46:15;6.45;;;3.10;;
19605;SDS011;9950;50.168;8.210;2023-09-19T04:48:42;7.50;;;3.05;;
19605;SDS011;9950;50.168;8.210;2023-09-19T04:51:10;4.15;;;2.53;;
19605;SDS011;9950;50.168;8.210;2023-09-19T04:53:38;6.65;;;2.60;;
19605;SDS011;9950;50.168;8.210;2023-09-19T04:56:06;8.15;;;2.90;;
19605;SDS011;9950;50.168;8.210;2023-09-19T04:58:33;4.97;;;2.83;;
19605;SDS011;9950;50.168;8.210;2023-09-19T05:01:01;5.25;;;3.38;;
19605;SDS011;9950;50.168;8.210;2023-09-19T05:03:29;4.78;;;2.90;;
19605;SDS011;9950;50.168;8.210;2023-09-19T05:05:56;8.40;;;3.10;;
19605;SDS011;9950;50.168;8.210;2023-09-19T05:08:23;6.40;;;3.15;;
19605;SDS011;9950;50.168;8.210;2023-09-19T05:10:52;5.50;;;3.17;;
19605;SDS011;9950;50.168;8.210;2023-09-19T05:13:21;5.97;;;2.97;;
19605;SDS011;9950;50.168;8.210;2023-09-19T05:15:49;6.07;;;3.08;;
19605;SDS011;9950;50.168;8.210;2023-09-19T05:18:16;4.00;;;2.88;;
19605;SDS011;9950;50.168;8.210;2023-09-19T05:20:43;4.25;;;2.33;;
19605;SDS011;9950;50.168;8.210;2023-09-19T05:23:10;3.42;;;2.60;;
19605;SDS011;9950;50.168;8.210;2023-09-19T05:25:38;4.47;;;3.20;;
19605;SDS011;9950;50.168;8.210;2023-09-19T05:28:06;6.10;;;3.08;;
19605;SDS011;9950;50.168;8.210;2023-09-19T05:30:34;3.63;;;2.75;;
19605;SDS011;9950;50.168;8.210;2023-09-19T05:33:03;8.25;;;3.10;;
19605;SDS011;9950;50.168;8.210;2023-09-19T05:35:31;8.10;;;3.40;;
19605;SDS011;9950;50.168;8.210;2023-09-19T05:37:58;6.35;;;3.50;;
19605;SDS011;9950;50.168;8.210;2023-09-19T05:40:26;7.32;;;3.55;;
19605;SDS011;9950;50.168;8.210;2023-09-19T05:42:53;8.57;;;3.10;;
19605;SDS011;9950;50.168;8.210;2023-09-19T05:45:21;3.80;;;3.13;;
19605;SDS011;9950;50.168;8.210;2023-09-19T05:47:48;7.07;;;4.10;;
19605;SDS011;9950;50.168;8.210;2023-09-19T05:50:16;4.80;;;3.30;;
19605;SDS011;9950;50.168;8.210;2023-09-19T05:52:47;3.97;;;3.03;;
19605;SDS011;9950;50.168;8.210;2023-09-19T05:55:18;10.88;;;3.40;;
19605;SDS011;9950;50.168;8.210;2023-09-19T05:57:49;7.32;;;3.53;;
19605;SDS011;9950;50.168;8.210;2023-09-19T06:00:16;9.18;;;3.70;;
19605;SDS011;9950;50.168;8.210;2023-09-19T06:02:50;7.90;;;3.60;;
19605;SDS011;9950;50.168;8.210;2023-09-19T06:05:18;7.22;;;3.47;;
19605;SDS011;9950;50.168;8.210;2023-09-19T06:07:45;5.03;;;3.30;;
19605;SDS011;9950;50.168;8.210;2023-09-19T06:10:12;6.63;;;3.53;;
19605;SDS011;9950;50.168;8.210;2023-09-19T06:12:40;7.20;;;3.50;;
19605;SDS011;9950;50.168;8.210;2023-09-19T06:15:09;8.38;;;3.90;;
19605;SDS011;9950;50.168;8.210;2023-09-19T06:17:40;6.63;;;3.53;;
19605;SDS011;9950;50.168;8.210;2023-09-19T06:20:08;7.03;;;3.70;;
19605;SDS011;9950;50.168;8.210;2023-09-19T06:22:40;8.38;;;3.78;;
19605;SDS011;9950;50.168;8.210;2023-09-19T06:25:08;8.65;;;3.85;;
19605;SDS011;9950;50.168;8.210;2023-09-19T06:27:36;8.50;;;3.60;;
19605;SDS011;9950;50.168;8.210;2023-09-19T06:30:04;6.68;;;3.33;;
19605;SDS011;9950;50.168;8.210;2023-09-19T06:32:33;6.68;;;3.15;;
19605;SDS011;9950;50.168;8.210;2023-09-19T06:35:00;7.95;;;3.10;;
19605;SDS011;9950;50.168;8.210;2023-09-19T06:37:29;8.93;;;3.40;;
19605;SDS011;9950;50.168;8.210;2023-09-19T06:39:56;6.60;;;3.15;;
19605;SDS011;9950;50.168;8.210;2023-09-19T06:42:23;8.32;;;2.90;;
19605;SDS011;9950;50.168;8.210;2023-09-19T06:44:50;5.40;;;2.83;;
19605;SDS011;9950;50.168;8.210;2023-09-19T06:47:18;4.03;;;2.70;;
19605;SDS011;9950;50.168;8.210;2023-09-19T06:49:46;8.00;;;2.85;;
19605;SDS011;9950;50.168;8.210;2023-09-19T06:52:13;8.07;;;2.75;;
19605;SDS011;9950;50.168;8.210;2023-09-19T06:54:42;9.35;;;2.75;;
19605;SDS011;9950;50.168;8.210;2023-09-19T06:57:09;6.03;;;2.58;;
19605;SDS011;9950;50.168;8.210;2023-09-19T06:59:36;5.10;;;2.80;;
19605;SDS011;9950;50.168;8.210;2023-09-19T07:02:03;5.18;;;2.22;;
19605;SDS011;9950;50.168;8.210;2023-09-19T07:04:32;8.00;;;2.38;;
19605;SDS011;9950;50.168;8.210;2023-09-19T07:06:59;6.25;;;2.92;;
19605;SDS011;9950;50.168;8.210;2023-09-19T07:09:26;5.05;;;2.50;;
19605;SDS011;9950;50.168;8.210;2023-09-19T07:11:54;4.50;;;2.30;;
19605;SDS011;9950;50.168;8.210;2023-09-19T07:14:21;6.20;;;2.45;;
19605;SDS011;9950;50.168;8.210;2023-09-19T07:16:49;9.32;;;2.78;;
19605;SDS011;9950;50.168;8.210;2023-09-19T07:19:17;6.75;;;2.47;;
19605;SDS011;9950;50.168;8.210;2023-09-19T07:21:44;6.57;;;2.55;;
19605;SDS011;9950;50.168;8.210;2023-09-19T07:24:12;14.65;;;2.67;;
19605;SDS011;9950;50.168;8.210;2023-09-19T07:26:39;8.38;;;2.50;;
19605;SDS011;9950;50.168;8.210;2023-09-19T07:29:08;6.63;;;2.53;;
19605;SDS011;9950;50.168;8.210;2023-09-19T07:31:35;9.00;;;2.65;;
19605;SDS011;9950;50.168;8.210;2023-09-19T07:34:02;6.60;;;1.98;;
19605;SDS011;9950;50.168;8.210;2023-09-19T07:36:30;5.63;;;2.20;;
19605;SDS011;9950;50.168;8.210;2023-09-19T07:38:57;7.75;;;2.83;;
19605;SDS011;9950;50.168;8.210;2023-09-19T07:41:25;4.55;;;2.00;;
19605;SDS011;9950;50.168;8.210;2023-09-19T07:43:52;8.05;;;2.30;;
19605;SDS011;9950;50.168;8.210;2023-09-19T07:46:20;6.72;;;2.45;;
19605;SDS011;9950;50.168;8.210;2023-09-19T07:48:49;5.53;;;2.42;;
19605;SDS011;9950;50.168;8.210;2023-09-19T07:51:17;5.65;;;2.58;;
19605;SDS011;9950;50.168;8.210;2023-09-19T07:53:44;8.82;;;2.13;;
19605;SDS011;9950;50.168;8.210;2023-09-19T07:56:13;8.70;;;1.85;;
19605;SDS011;9950;50.168;8.210;2023-09-19T07:58:41;7.15;;;2.50;;
19605;SDS011;9950;50.168;8.210;2023-09-19T08:01:09;6.60;;;2.40;;
19605;SDS011;9950;50.168;8.210;2023-09-19T08:03:39;5.70;;;2.10;;
19605;SDS011;9950;50.168;8.210;2023-09-19T08:06:08;6.80;;;2.42;;
19605;SDS011;9950;50.168;8.210;2023-09-19T08:08:35;8.23;;;2.20;;
19605;SDS011;9950;50.168;8.210;2023-09-19T08:11:03;7.57;;;2.28;;
19605;SDS011;9950;50.168;8.210;2023-09-19T08:13:35;8.52;;;1.95;;
19605;SDS011;9950;50.168;8.210;2023-09-19T08:16:06;5.72;;;2.03;;
19605;SDS011;9950;50.168;8.210;2023-09-19T08:18:33;7.22;;;2.20;;
19605;SDS011;9950;50.168;8.210;2023-09-19T08:21:02;9.55;;;2.10;;
19605;SDS011;9950;50.168;8.210;2023-09-19T08:23:29;5.47;;;2.30;;
19605;SDS011;9950;50.168;8.210;2023-09-19T08:25:57;6.80;;;3.17;;
19605;SDS011;9950;50.168;8.210;2023-09-19T08:28:27;5.47;;;2.05;;
19605;SDS011;9950;50.168;8.210;2023-09-19T08:30:54;6.60;;;1.95;;
19605;SDS011;9950;50.168;8.210;2023-09-19T08:33:23;5.40;;;2.05;;
19605;SDS011;9950;50.168;8.210;2023-09-19T08:35:50;6.10;;;2.10;;
19605;SDS011;9950;50.168;8.210;2023-09-19T08:38:19;5.00;;;1.80;;
19605;SDS011;9950;50.168;8.210;2023-09-19T08:40:46;10.50;;;2.25;;
19605;SDS011;9950;50.168;8.210;2023-09-19T08:43:13;7.93;;;2.17;;
19605;SDS011;9950;50.168;8.210;2023-09-19T08:45:40;7.13;;;2.10;;
19605;SDS011;9950;50.168;8.210;2023-09-19T08:48:11;5.40;;;2.22;;
19605;SDS011;9950;50.168;8.210;2023-09-19T08:50:43;5.80;;;1.98;;
19605;SDS011;9950;50.168;8.210;2023-09-19T08:53:16;7.68;;;2.72;;
19605;SDS011;9950;50.168;8.210;2023-09-19T08:55:49;7.25;;;2.08;;
19605;SDS011;9950;50.168;8.210;2023-09-19T08:58:21;4.85;;;1.90;;
19605;SDS011;9950;50.168;8.210;2023-09-19T09:00:49;8.50;;;2.58;;
19605;SDS011;9950;50.168;8.210;2023-09-19T09:03:17;6.90;;;2.10;;
19605;SDS011;9950;50.168;8.210;2023-09-19T09:05:46;5.15;;;2.15;;
19605;SDS011;9950;50.168;8.210;2023-09-19T09:08:15;7.20;;;2.10;;
19605;SDS011;9950;50.168;8.210;2023-09-19T09:10:43;3.88;;;1.45;;
19605;SDS011;9950;50.168;8.210;2023-09-19T09:13:12;11.13;;;2.03;;
19605;SDS011;9950;50.168;8.210;2023-09-19T09:15:40;8.25;;;2.22;;
19605;SDS011;9950;50.168;8.210;2023-09-19T09:18:10;5.93;;;1.92;;
19605;SDS011;9950;50.168;8.210;2023-09-19T09:20:37;4.45;;;1.70;;
19605;SDS011;9950;50.168;8.210;2023-09-19T09:23:04;9.70;;;2.20;;
19605;SDS011;9950;50.168;8.210;2023-09-19T09:25:47;5.57;;;2.03;;
19605;SDS011;9950;50.168;8.210;2023-09-19T09:28:20;9.85;;;2.58;;
19605;SDS011;9950;50.168;8.210;2023-09-19T09:30:47;7.45;;;2.22;;
19605;SDS011;9950;50.168;8.210;2023-09-19T09:33:15;5.55;;;1.80;;
19605;SDS011;9950;50.168;8.210;2023-09-19T09:35:49;7.82;;;2.05;;
19605;SDS011;9950;50.168;8.210;2023-09-19T09:38:18;11.05;;;2.38;;
19605;SDS011;9950;50.168;8.210;2023-09-19T09:40:46;5.72;;;2.50;;
19605;SDS011;9950;50.168;8.210;2023-09-19T09:43:29;5.60;;;1.92;;
19605;SDS011;9950;50.168;8.210;2023-09-19T09:46:07;9.48;;;2.17;;
19605;SDS011;9950;50.168;8.210;2023-09-19T09:48:58;7.80;;;2.25;;
19605;SDS011;9950;50.168;8.210;2023-09-19T09:51:41;9.82;;;1.98;;
19605;SDS011;9950;50.168;8.210;2023-09-19T09:54:12;5.28;;;2.05;;
19605;SDS011;9950;50.168;8.210;2023-09-19T09:56:52;6.68;;;2.17;;
19605;SDS011;9950;50.168;8.210;2023-09-19T10:02:07;8.70;;;2.50;;
19605;SDS011;9950;50.168;8.210;2023-09-19T10:04:38;10.60;;;2.50;;
19605;SDS011;9950;50.168;8.210;2023-09-19T10:07:26;9.50;;;2.03;;
19605;SDS011;9950;50.168;8.210;2023-09-19T10:10:01;9.63;;;2.30;;
19605;SDS011;9950;50.168;8.210;2023-09-19T10:12:42;7.50;;;2.20;;
19605;SDS011;9950;50.168;8.210;2023-09-19T10:15:10;7.70;;;2.40;;
19605;SDS011;9950;50.168;8.210;2023-09-19T10:17:43;7.45;;;1.98;;
19605;SDS011;9950;50.168;8.210;2023-09-19T10:20:14;6.40;;;1.92;;
19605;SDS011;9950;50.168;8.210;2023-09-19T10:23:03;8.07;;;2.30;;
19605;SDS011;9950;50.168;8.210;2023-09-19T10:25:34;6.38;;;1.92;;
19605;SDS011;9950;50.168;8.210;2023-09-19T10:28:03;6.78;;;2.15;;
19605;SDS011;9950;50.168;8.210;2023-09-19T10:30:36;8.63;;;2.05;;
19605;SDS011;9950;50.168;8.210;2023-09-19T10:33:05;5.75;;;2.20;;
19605;SDS011;9950;50.168;8.210;2023-09-19T10:35:33;7.75;;;2.17;;
19605;SDS011;9950;50.168;8.210;2023-09-19T10:38:02;5.55;;;2.10;;
19605;SDS011;9950;50.168;8.210;2023-09-19T10:40:32;5.78;;;2.10;;
19605;SDS011;9950;50.168;8.210;2023-09-19T10:43:00;8.98;;;2.10;;
19605;SDS011;9950;50.168;8.210;2023-09-19T10:45:29;10.30;;;2.30;;
19605;SDS011;9950;50.168;8.210;2023-09-19T10:47:57;7.60;;;2.25;;
19605;SDS011;9950;50.168;8.210;2023-09-19T10:50:26;6.55;;;2.40;;
19605;SDS011;9950;50.168;8.210;2023-09-19T10:52:56;4.78;;;2.50;;
19605;SDS011;9950;50.168;8.210;2023-09-19T10:55:30;5.55;;;1.85;;
19605;SDS011;9950;50.168;8.210;2023-09-19T10:57:58;8.73;;;2.65;;
19605;SDS011;9950;50.168;8.210;2023-09-19T11:00:29;5.93;;;2.10;;
19605;SDS011;9950;50.168;8.210;2023-09-19T11:03:18;6.57;;;2.25;;
19605;SDS011;9950;50.168;8.210;2023-09-19T11:11:43;4.93;;;1.88;;
19605;SDS011;9950;50.168;8.210;2023-09-19T11:14:30;6.05;;;1.92;;
19605;SDS011;9950;50.168;8.210;2023-09-19T11:25:50;7.05;;;2.10;;
19605;SDS011;9950;50.168;8.210;2023-09-19T11:28:30;7.40;;;2.45;;
19605;SDS011;9950;50.168;8.210;2023-09-19T11:30:57;6.60;;;1.98;;
19605;SDS011;9950;50.168;8.210;2023-09-19T11:33:25;8.25;;;2.20;;
19605;SDS011;9950;50.168;8.210;2023-09-19T11:35:59;4.75;;;1.85;;
19605;SDS011;9950;50.168;8.210;2023-09-19T11:46:54;5.60;;;1.95;;
19605;SDS011;9950;50.168;8.210;2023-09-19T11:49:26;5.68;;;1.88;;
19605;SDS011;9950;50.168;8.210;2023-09-19T11:51:55;7.03;;;1.90;;
19605;SDS011;9950;50.168;8.210;2023-09-19T11:54:25;6.72;;;1.80;;
19605;SDS011;9950;50.168;8.210;2023-09-19T11:56:56;7.88;;;2.05;;
19605;SDS011;9950;50.168;8.210;2023-09-19T11:59:24;4.47;;;1.60;;
19605;SDS011;9950;50.168;8.210;2023-09-19T12:01:55;7.38;;;1.90;;
19605;SDS011;9950;50.168;8.210;2023-09-19T12:04:36;3.17;;;1.63;;
19605;SDS011;9950;50.168;8.210;2023-09-19T12:07:04;8.15;;;1.70;;
19605;SDS011;9950;50.168;8.210;2023-09-19T12:09:35;6.25;;;2.25;;
19605;SDS011;9950;50.168;8.210;2023-09-19T12:12:03;4.32;;;1.50;;
19605;SDS011;9950;50.168;8.210;2023-09-19T12:14:30;6.93;;;1.85;;
19605;SDS011;9950;50.168;8.210;2023-09-19T12:16:59;6.25;;;1.80;;
19605;SDS011;9950;50.168;8.210;2023-09-19T12:19:28;5.70;;;1.83;;
19605;SDS011;9950;50.168;8.210;2023-09-19T12:21:59;5.20;;;2.35;;
19605;SDS011;9950;50.168;8.210;2023-09-19T12:24:29;5.57;;;1.70;;
19605;SDS011;9950;50.168;8.210;2023-09-19T12:27:00;5.30;;;1.90;;
19605;SDS011;9950;50.168;8.210;2023-09-19T12:29:29;6.03;;;1.80;;
19605;SDS011;9950;50.168;8.210;2023-09-19T12:31:57;6.28;;;1.75;;
19605;SDS011;9950;50.168;8.210;2023-09-19T12:34:30;6.22;;;2.00;;
19605;SDS011;9950;50.168;8.210;2023-09-19T12:37:06;8.00;;;1.95;;
19605;SDS011;9950;50.168;8.210;2023-09-19T12:39:38;3.53;;;1.50;;
19605;SDS011;9950;50.168;8.210;2023-09-19T12:42:06;3.95;;;1.65;;
19605;SDS011;9950;50.168;8.210;2023-09-19T12:44:35;4.60;;;1.75;;
19605;SDS011;9950;50.168;8.210;2023-09-19T12:47:08;3.83;;;1.40;;
19605;SDS011;9950;50.168;8.210;2023-09-19T12:50:04;5.13;;;2.08;;
19605;SDS011;9950;50.168;8.210;2023-09-19T12:52:24;3.75;;;1.75;;
19605;SDS011;9950;50.168;8.210;2023-09-19T12:54:51;4.75;;;1.60;;
19605;SDS011;9950;50.168;8.210;2023-09-19T12:57:23;4.32;;;2.15;;
19605;SDS011;9950;50.168;8.210;2023-09-19T12:59:51;7.47;;;1.95;;
19605;SDS011;9950;50.168;8.210;2023-09-19T13:02:19;6.25;;;1.75;;
19605;SDS011;9950;50.168;8.210;2023-09-19T13:04:53;5.07;;;1.60;;
19605;SDS011;9950;50.168;8.210;2023-09-19T13:07:40;7.13;;;1.67;;
19605;SDS011;9950;50.168;8.210;2023-09-19T13:10:12;5.45;;;1.45;;
19605;SDS011;9950;50.168;8.210;2023-09-19T13:12:42;5.63;;;1.63;;
19605;SDS011;9950;50.168;8.210;2023-09-19T13:15:13;5.40;;;1.48;;
19605;SDS011;9950;50.168;8.210;2023-09-19T13:17:42;3.83;;;1.52;;
19605;SDS011;9950;50.168;8.210;2023-09-19T13:20:21;4.28;;;1.70;;
19605;SDS011;9950;50.168;8.210;2023-09-19T13:22:53;8.05;;;1.75;;
19605;SDS011;9950;50.168;8.210;2023-09-19T13:25:24;6.30;;;1.58;;
19605;SDS011;9950;50.168;8.210;2023-09-19T13:27:55;4.75;;;1.63;;
19605;SDS011;9950;50.168;8.210;2023-09-19T13:30:22;6.85;;;1.77;;
19605;SDS011;9950;50.168;8.210;2023-09-19T13:32:51;4.45;;;1.60;;
19605;SDS011;9950;50.168;8.210;2023-09-19T13:35:19;8.43;;;2.47;;
19605;SDS011;9950;50.168;8.210;2023-09-19T13:37:48;5.78;;;1.80;;
19605;SDS011;9950;50.168;8.210;2023-09-19T13:40:16;4.88;;;1.30;;
19605;SDS011;9950;50.168;8.210;2023-09-19T13:42:44;6.75;;;1.80;;
19605;SDS011;9950;50.168;8.210;2023-09-19T13:45:11;4.32;;;1.58;;
19605;SDS011;9950;50.168;8.210;2023-09-19T13:47:40;4.65;;;1.90;;
19605;SDS011;9950;50.168;8.210;2023-09-19T13:50:08;7.28;;;1.85;;
19605;SDS011;9950;50.168;8.210;2023-09-19T13:52:35;3.90;;;1.60;;
19605;SDS011;9950;50.168;8.210;2023-09-19T13:55:05;4.72;;;1.40;;
19605;SDS011;9950;50.168;8.210;2023-09-19T13:57:33;4.68;;;1.83;;
19605;SDS011;9950;50.168;8.210;2023-09-19T14:00:00;9.93;;;1.85;;
19605;SDS011;9950;50.168;8.210;2023-09-19T14:02:27;5.05;;;1.35;;
19605;SDS011;9950;50.168;8.210;2023-09-19T14:04:55;4.78;;;1.50;;
19605;SDS011;9950;50.168;8.210;2023-09-19T14:07:22;4.78;;;1.52;;
19605;SDS011;9950;50.168;8.210;2023-09-19T14:09:50;5.82;;;1.60;;
19605;SDS011;9950;50.168;8.210;2023-09-19T14:12:19;4.95;;;1.52;;
19605;SDS011;9950;50.168;8.210;2023-09-19T14:14:46;5.20;;;1.85;;
19605;SDS011;9950;50.168;8.210;2023-09-19T14:17:16;34.03;;;10.32;;
19605;SDS011;9950;50.168;8.210;2023-09-19T14:19:43;7.30;;;2.83;;
19605;SDS011;9950;50.168;8.210;2023-09-19T14:22:10;15.60;;;5.47;;
19605;SDS011;9950;50.168;8.210;2023-09-19T14:24:39;16.58;;;5.97;;
19605;SDS011;9950;50.168;8.210;2023-09-19T14:27:07;7.57;;;3.47;;
19605;SDS011;9950;50.168;8.210;2023-09-19T14:29:36;8.48;;;2.67;;
19605;SDS011;9950;50.168;8.210;2023-09-19T14:32:03;3.17;;;1.20;;
19605;SDS011;9950;50.168;8.210;2023-09-19T14:34:31;3.38;;;1.35;;
19605;SDS011;9950;50.168;8.210;2023-09-19T14:36:58;6.45;;;2.65;;
19605;SDS011;9950;50.168;8.210;2023-09-19T14:39:25;6.50;;;2.28;;
19605;SDS011;9950;50.168;8.210;2023-09-19T14:41:53;8.23;;;2.95;;
19605;SDS011;9950;50.168;8.210;2023-09-19T14:44:20;5.88;;;2.20;;
19605;SDS011;9950;50.168;8.210;2023-09-19T14:46:49;5.80;;;1.77;;
19605;SDS011;9950;50.168;8.210;2023-09-19T14:49:16;3.95;;;1.75;;
19605;SDS011;9950;50.168;8.210;2023-09-19T14:51:43;6.35;;;1.60;;
19605;SDS011;9950;50.168;8.210;2023-09-19T14:54:12;6.75;;;1.60;;
19605;SDS011;9950;50.168;8.210;2023-09-19T14:56:41;4.15;;;1.50;;
19605;SDS011;9950;50.168;8.210;2023-09-19T14:59:09;3.78;;;1.73;;
19605;SDS011;9950;50.168;8.210;2023-09-19T15:01:37;5.20;;;1.60;;
19605;SDS011;9950;50.168;8.210;2023-09-19T15:04:07;1.88;;;0.82;;
19605;SDS011;9950;50.168;8.210;2023-09-19T15:06:34;3.60;;;1.35;;
19605;SDS011;9950;50.168;8.210;2023-09-19T15:09:02;4.20;;;1.30;;
19605;SDS011;9950;50.168;8.210;2023-09-19T15:11:30;4.78;;;1.23;;
19605;SDS011;9950;50.168;8.210;2023-09-19T15:13:57;8.10;;;1.60;;
19605;SDS011;9950;50.168;8.210;2023-09-19T15:16:24;2.28;;;1.17;;
19605;SDS011;9950;50.168;8.210;2023-09-19T15:18:52;2.58;;;1.33;;
19605;SDS011;9950;50.168;8.210;2023-09-19T15:21:21;3.35;;;1.50;;
19605;SDS011;9950;50.168;8.210;2023-09-19T15:23:49;5.32;;;1.30;;
19605;SDS011;9950;50.168;8.210;2023-09-19T15:26:16;4.10;;;1.63;;
19605;SDS011;9950;50.168;8.210;2023-09-19T15:28:45;3.88;;;1.35;;
19605;SDS011;9950;50.168;8.210;2023-09-19T15:31:13;2.70;;;1.10;;
19605;SDS011;9950;50.168;8.210;2023-09-19T15:33:40;3.15;;;1.38;;
19605;SDS011;9950;50.168;8.210;2023-09-19T15:36:08;2.75;;;1.02;;
19605;SDS011;9950;50.168;8.210;2023-09-19T15:41:29;3.65;;;1.08;;
19605;SDS011;9950;50.168;8.210;2023-09-19T15:43:56;3.42;;;1.15;;